»·PEaware :: ASA69 KBOI-KPDX

ASA69 :: KBOI-KPDX

FLIGHT INFORMATION

Flight Status: Arrived
Operator:
Alaska Airlines
More flights by this operator :: More flights under this callsign
Pilot: Steve F. (26981)
Aircraft: BOEING 737-800
(B738)
More flights by this aircraft type
Origin: KBOI Boise Air Terminal/Gowen
United States
Destination: KPDX Portland Intl
United States
More flights between these airports :: More routes between these airports
Route: BOI3 SAILL BUELL JOTBA HHOOD4
File this flight plan on PilotEdge
Remarks:
Altitude:
(Current/Filed)
34,000ft
Speed:
(Current/Filed)
430kts
Departed: 11-Oct-20 03:11 PM
Arrived: 11-Oct-20 04:20 PM
Distance/Time
Traveled:
298nm/1:09
Distance/Time
To Go:
Arrived

Flight Plot

Page will automatically refresh every two minutes.

Flight plan parsing failed; only flown route is shown


Map Options




Map Legend


Flown Route
Filed Route
Departure Airport
Arrival Airport
Navaid (VOR, NDB)
Fix

Horizontal Profiles

Position Reports

Time Latitude Longitude Heading Altitude Ground
Speed
11-Oct-20 14:38 43.566945 -116.219642 24 2879ft 0kts
11-Oct-20 14:39 43.566945 -116.219642 24 2879ft 0kts
11-Oct-20 14:40 43.566945 -116.219642 24 2879ft 0kts
11-Oct-20 14:41 43.566945 -116.219642 24 2879ft 0kts
11-Oct-20 14:42 43.566945 -116.219642 24 2879ft 0kts
11-Oct-20 14:43 43.566945 -116.219642 24 2879ft 0kts
11-Oct-20 14:44 43.566945 -116.219642 24 2879ft 0kts
11-Oct-20 14:45 43.566945 -116.219642 24 2879ft 0kts
11-Oct-20 14:46 43.566945 -116.219642 24 2879ft 0kts
11-Oct-20 14:47 43.566945 -116.219642 24 2879ft 0kts
11-Oct-20 14:48 43.566945 -116.219642 24 2879ft 0kts
11-Oct-20 14:49 43.566945 -116.219642 24 2879ft 0kts
11-Oct-20 14:50 43.566945 -116.219642 24 2879ft 0kts
11-Oct-20 14:51 43.566945 -116.219642 24 2879ft 0kts
11-Oct-20 14:52 43.566945 -116.219642 24 2879ft 0kts
11-Oct-20 14:53 43.566945 -116.219642 24 2879ft 0kts
11-Oct-20 14:54 43.566945 -116.219642 24 2879ft 0kts
11-Oct-20 14:55 43.566945 -116.219642 24 2879ft 0kts
11-Oct-20 14:56 43.566945 -116.219642 24 2879ft 0kts
11-Oct-20 14:57 43.566945 -116.219642 24 2879ft 0kts
11-Oct-20 14:58 43.566552 -116.220172 68 2879ft 0kts
11-Oct-20 14:59 43.566552 -116.220171 68 2879ft 0kts
11-Oct-20 15:00 43.566552 -116.220169 68 2879ft 0kts
11-Oct-20 15:01 43.566554 -116.220164 68 2879ft 0kts
11-Oct-20 15:02 43.566482 -116.219802 165 2879ft 0kts
11-Oct-20 15:03 43.566481 -116.219802 165 2879ft 0kts
11-Oct-20 15:04 43.566474 -116.219799 165 2879ft 0kts
11-Oct-20 15:05 43.564727 -116.217060 115 2879ft 21kts
11-Oct-20 15:06 43.561622 -116.207862 114 2879ft 26kts
11-Oct-20 15:07 43.559418 -116.202656 204 2879ft 3kts
11-Oct-20 15:09 43.559408 -116.202663 204 2879ft 0kts
11-Oct-20 15:10 43.559044 -116.204173 295 2879ft 25kts
11-Oct-20 15:11 43.574552 -116.250147 293 3945ft 199kts
11-Oct-20 15:12 43.600123 -116.332582 291 6255ft 261kts
11-Oct-20 15:13 43.629172 -116.428960 291 9397ft 278kts
11-Oct-20 15:14 43.658599 -116.526583 292 12534ft 291kts
11-Oct-20 15:15 43.693220 -116.641217 293 14489ft 339kts
11-Oct-20 15:16 43.730697 -116.761539 298 17692ft 342kts
11-Oct-20 15:17 43.777591 -116.877180 300 20492ft 347kts
11-Oct-20 15:18 43.825022 -116.994503 300 22957ft 351kts
11-Oct-20 15:19 43.872335 -117.112270 300 25203ft 349kts
11-Oct-20 15:20 43.920178 -117.231048 301 26981ft 353kts
11-Oct-20 15:21 43.968368 -117.350496 301 28465ft 356kts
11-Oct-20 15:22 44.016286 -117.470229 300 30236ft 347kts
11-Oct-20 15:23 44.063044 -117.587739 300 31677ft 345kts
11-Oct-20 15:24 44.109253 -117.704437 299 33054ft 343kts
11-Oct-20 15:25 44.155135 -117.820819 299 34207ft 344kts
11-Oct-20 15:25 44.193460 -117.918387 299 34211ft 340kts
11-Oct-20 15:27 44.246406 -118.053837 299 34208ft 341kts
11-Oct-20 15:27 44.284127 -118.150724 299 34206ft 341kts
11-Oct-20 15:29 44.336851 -118.286693 299 34203ft 341kts
11-Oct-20 15:29 44.374384 -118.383896 299 34201ft 341kts
11-Oct-20 15:30 44.419345 -118.500766 298 34189ft 341kts
11-Oct-20 15:31 44.464135 -118.617680 298 34188ft 341kts
11-Oct-20 15:32 44.508858 -118.734928 298 34188ft 341kts
11-Oct-20 15:33 44.553381 -118.852150 298 34186ft 341kts
11-Oct-20 15:34 44.597707 -118.969335 297 34186ft 341kts
11-Oct-20 15:35 44.642062 -119.087071 297 34178ft 341kts
11-Oct-20 15:36 44.686328 -119.205095 297 34169ft 341kts
11-Oct-20 15:37 44.730412 -119.323143 297 34164ft 342kts
11-Oct-20 15:38 44.774530 -119.441779 297 34153ft 341kts
11-Oct-20 15:39 44.818420 -119.560305 297 34141ft 341kts
11-Oct-20 15:40 44.862331 -119.679404 296 34130ft 341kts
11-Oct-20 15:41 44.906009 -119.798456 296 34120ft 341kts
11-Oct-20 15:42 44.949540 -119.917523 296 34110ft 340kts
11-Oct-20 15:43 44.992768 -120.036350 296 34103ft 342kts
11-Oct-20 15:44 45.036439 -120.156229 296 34096ft 342kts
11-Oct-20 15:45 45.079852 -120.276314 296 34077ft 342kts
11-Oct-20 15:46 45.122900 -120.396700 296 32338ft 342kts
11-Oct-20 15:47 45.165919 -120.517375 297 29970ft 344kts
11-Oct-20 15:48 45.212554 -120.638731 298 27570ft 359kts
11-Oct-20 15:49 45.260859 -120.762942 298 25168ft 356kts
11-Oct-20 15:50 45.307906 -120.885650 298 22767ft 351kts
11-Oct-20 15:51 45.354187 -121.007470 298 20363ft 348kts
11-Oct-20 15:52 45.400025 -121.128136 297 18025ft 342kts
11-Oct-20 15:53 45.437674 -121.248242 286 16062ft 324kts
11-Oct-20 15:54 45.460666 -121.365230 285 15105ft 291kts
11-Oct-20 15:55 45.482157 -121.473541 285 14013ft 276kts
11-Oct-20 15:56 45.503447 -121.581610 284 13352ft 287kts
11-Oct-20 15:57 45.524904 -121.691470 283 12650ft 286kts
11-Oct-20 15:58 45.532884 -121.803875 272 11950ft 285kts
11-Oct-20 15:59 45.536766 -121.916620 271 11250ft 285kts
11-Oct-20 16:00 45.552502 -122.026656 284 10553ft 275kts
11-Oct-20 16:01 45.573599 -122.126493 283 9946ft 253kts
11-Oct-20 16:02 45.593507 -122.222553 282 9344ft 252kts
11-Oct-20 16:03 45.613403 -122.318916 282 8533ft 250kts
11-Oct-20 16:04 45.632574 -122.412079 282 7573ft 239kts
11-Oct-20 16:05 45.656032 -122.500599 293 6523ft 240kts
11-Oct-20 16:06 45.685842 -122.582438 292 5800ft 220kts
11-Oct-20 16:07 45.716267 -122.657513 296 4990ft 216kts
11-Oct-20 16:08 45.745177 -122.732915 292 3831ft 217kts
11-Oct-20 16:09 45.771644 -122.811010 290 2971ft 217kts
11-Oct-20 16:10 45.798382 -122.888621 286 2961ft 215kts
11-Oct-20 16:11 45.767081 -122.931747 187 2996ft 183kts
11-Oct-20 16:12 45.721225 -122.903814 146 2971ft 185kts
11-Oct-20 16:13 45.692550 -122.847647 123 2990ft 173kts
11-Oct-20 16:14 45.668349 -122.784638 125 2919ft 183kts
11-Oct-20 16:15 45.645095 -122.725148 127 1989ft 160kts
11-Oct-20 16:16 45.624458 -122.672254 123 1326ft 144kts
11-Oct-20 16:17 45.604695 -122.620902 123 460ft 147kts
11-Oct-20 16:18 45.588461 -122.579360 118 38ft 55kts
11-Oct-20 16:19 45.586443 -122.576193 213 38ft 5kts
11-Oct-20 16:20 45.589311 -122.584163 298 38ft 30kts
11-Oct-20 16:21 45.590346 -122.590555 210 38ft 5kts
11-Oct-20 16:22 45.589935 -122.590841 206 38ft 0kts

Navigation Log

Ident Type
Flight plan parsing failed, navigation log unavailable